Time;durP1;ratioP1;P1;durP2;ratioP2;P2;SDS_P1;SDS_P2;PMS_P1;PMS_P2;Temp;Humidity;BMP_temperature;BMP_pressure;BME280_temperature;BME280_humidity;BME280_pressure;Samples;Min_cycle;Max_cycle;Signal;HPM_P1;HPM_P2
2023/06/01 00:02:11;;;;;;;2.03;1.13;;;;;;;;;;5058789;28;20122;-57
2023/06/01 00:04:40;;;;;;;2.95;1.20;;;;;;;;;;5056236;28;20120;-56
2023/06/01 00:07:06;;;;;;;3.97;1.98;;;;;;;;;;5042911;28;20756;-57
2023/06/01 00:09:32;;;;;;;2.58;1.30;;;;;;;;;;5055262;28;20049;-57
2023/06/01 00:11:58;;;;;;;1.52;1.30;;;;;;;;;;5055975;28;20076;-57
2023/06/01 00:14:24;;;;;;;4.28;1.77;;;;;;;;;;5057052;28;20403;-57
2023/06/01 00:16:51;;;;;;;2.40;1.75;;;;;;;;;;5059073;28;20456;-57
2023/06/01 00:19:18;;;;;;;4.35;1.67;;;;;;;;;;5055458;28;20044;-57
2023/06/01 00:21:44;;;;;;;2.00;1.77;;;;;;;;;;5058910;28;20041;-57
2023/06/01 00:24:10;;;;;;;2.03;1.70;;;;;;;;;;5052973;28;20048;-57
2023/06/01 00:26:36;;;;;;;2.55;2.35;;;;;;;;;;5055328;28;20055;-57
2023/06/01 00:29:02;;;;;;;4.10;2.17;;;;;;;;;;5054997;28;20036;-57
2023/06/01 00:31:28;;;;;;;2.70;1.67;;;;;;;;;;5055298;28;20044;-57
2023/06/01 00:33:54;;;;;;;3.85;2.10;;;;;;;;;;5055138;28;20033;-57
2023/06/01 00:36:20;;;;;;;2.83;1.88;;;;;;;;;;5055288;28;20040;-56
2023/06/01 00:38:46;;;;;;;3.80;2.05;;;;;;;;;;5054645;28;20087;-57
2023/06/01 00:41:12;;;;;;;1.88;1.70;;;;;;;;;;5055196;28;20079;-57
2023/06/01 00:43:38;;;;;;;2.20;1.70;;;;;;;;;;5059545;28;20409;-57
2023/06/01 00:46:05;;;;;;;4.65;2.38;;;;;;;;;;5055683;28;20076;-57
2023/06/01 00:48:31;;;;;;;3.42;2.08;;;;;;;;;;5058284;28;20067;-57
2023/06/01 00:50:58;;;;;;;2.67;2.10;;;;;;;;;;5056292;28;20072;-57
2023/06/01 00:53:25;;;;;;;3.00;2.13;;;;;;;;;;5052231;28;20045;-57
2023/06/01 00:55:51;;;;;;;2.47;1.65;;;;;;;;;;5056797;28;20114;-56
2023/06/01 00:58:17;;;;;;;2.17;1.60;;;;;;;;;;5056862;28;20069;-56
2023/06/01 01:00:43;;;;;;;2.78;1.42;;;;;;;;;;5054641;28;20756;-57
2023/06/01 01:03:10;;;;;;;2.67;1.45;;;;;;;;;;5052374;28;20480;-57
2023/06/01 01:05:37;;;;;;;3.30;1.73;;;;;;;;;;5053507;28;20045;-57
2023/06/01 01:08:03;;;;;;;3.20;1.60;;;;;;;;;;5056379;28;20408;-57
2023/06/01 01:10:34;;;;;;;2.53;1.80;;;;;;;;;;5053363;28;20052;-57
2023/06/01 01:13:12;;;;;;;2.03;1.45;;;;;;;;;;5056488;28;20400;-56
2023/06/01 01:15:56;;;;;;;2.08;1.50;;;;;;;;;;5058905;28;20048;-57
2023/06/01 01:18:32;;;;;;;2.08;1.50;;;;;;;;;;5053767;28;20037;-56
2023/06/01 01:21:00;;;;;;;3.05;1.73;;;;;;;;;;5054040;28;20084;-56
2023/06/01 01:23:26;;;;;;;1.63;1.15;;;;;;;;;;5053409;28;20041;-57
2023/06/01 01:26:00;;;;;;;1.60;1.25;;;;;;;;;;5059449;28;20165;-56
2023/06/01 01:28:38;;;;;;;2.75;1.30;;;;;;;;;;5049788;28;20041;-57
2023/06/01 01:31:05;;;;;;;1.50;1.38;;;;;;;;;;5049650;28;20116;-57
2023/06/01 01:33:35;;;;;;;2.17;1.40;;;;;;;;;;5054721;28;20078;-57
2023/06/01 01:36:02;;;;;;;1.05;0.85;;;;;;;;;;5050698;28;20056;-57
2023/06/01 01:38:28;;;;;;;1.02;1.00;;;;;;;;;;5052744;28;20084;-56
2023/06/01 01:40:54;;;;;;;1.10;1.00;;;;;;;;;;5052708;28;20083;-57
2023/06/01 01:43:20;;;;;;;0.90;0.88;;;;;;;;;;5051169;28;20061;-57
2023/06/01 01:45:48;;;;;;;0.57;0.57;;;;;;;;;;5052803;28;20083;-56
2023/06/01 01:48:23;;;;;;;1.30;0.98;;;;;;;;;;5055678;28;20074;-57
2023/06/01 01:50:53;;;;;;;0.95;0.95;;;;;;;;;;5052663;28;20045;-57
2023/06/01 01:53:20;;;;;;;0.85;0.60;;;;;;;;;;5056366;28;20029;-57
2023/06/01 01:55:48;;;;;;;0.75;0.70;;;;;;;;;;5055260;28;20041;-57
2023/06/01 01:58:15;;;;;;;0.82;0.63;;;;;;;;;;5055320;28;20047;-57
2023/06/01 02:00:42;;;;;;;1.30;0.70;;;;;;;;;;5071823;28;20097;-57
2023/06/01 02:03:15;;;;;;;1.65;1.10;;;;;;;;;;5054967;28;20056;-57
2023/06/01 02:05:41;;;;;;;2.15;1.00;;;;;;;;;;5054135;28;20048;-56
2023/06/01 02:08:07;;;;;;;0.95;0.85;;;;;;;;;;5056201;28;20389;-56
2023/06/01 02:10:33;;;;;;;1.10;0.65;;;;;;;;;;5056554;28;20095;-56
2023/06/01 02:13:00;;;;;;;0.60;0.60;;;;;;;;;;5054425;28;20087;-57
2023/06/01 02:15:26;;;;;;;0.80;0.68;;;;;;;;;;5053179;28;20028;-57
2023/06/01 02:17:53;;;;;;;1.95;1.00;;;;;;;;;;5051210;28;20562;-57
2023/06/01 02:20:20;;;;;;;2.55;1.02;;;;;;;;;;5053308;28;20048;-57
2023/06/01 02:22:46;;;;;;;1.70;1.25;;;;;;;;;;5054328;28;20044;-57
2023/06/01 02:25:12;;;;;;;1.30;0.85;;;;;;;;;;5052977;28;20083;-57
2023/06/01 02:27:38;;;;;;;2.15;1.50;;;;;;;;;;5056716;28;20091;-57
2023/06/01 02:30:06;;;;;;;1.77;1.23;;;;;;;;;;5054838;28;20454;-56
2023/06/01 02:32:32;;;;;;;1.00;0.90;;;;;;;;;;5052306;28;20377;-57
2023/06/01 02:34:58;;;;;;;3.30;1.30;;;;;;;;;;5058784;28;20052;-56
2023/06/01 02:37:25;;;;;;;1.27;1.17;;;;;;;;;;5054976;28;20127;-57
2023/06/01 02:39:51;;;;;;;1.85;1.15;;;;;;;;;;5054592;28;20063;-57
2023/06/01 02:42:17;;;;;;;1.52;1.17;;;;;;;;;;5052340;28;20037;-56
2023/06/01 02:44:43;;;;;;;1.30;0.95;;;;;;;;;;5055951;28;20087;-57
2023/06/01 02:47:09;;;;;;;1.15;0.80;;;;;;;;;;5050820;28;20036;-57
2023/06/01 02:49:35;;;;;;;0.73;0.55;;;;;;;;;;5051116;28;20048;-56
2023/06/01 02:52:01;;;;;;;1.27;1.17;;;;;;;;;;5056681;28;20543;-57
2023/06/01 02:54:27;;;;;;;1.65;0.80;;;;;;;;;;5056393;28;20385;-54
2023/06/01 02:56:53;;;;;;;0.95;0.82;;;;;;;;;;5055135;28;20041;-56
2023/06/01 02:59:20;;;;;;;0.70;0.70;;;;;;;;;;5059766;28;20128;-57
2023/06/01 03:01:46;;;;;;;1.15;0.85;;;;;;;;;;5054552;28;20457;-57
2023/06/01 03:04:12;;;;;;;2.05;0.82;;;;;;;;;;5057019;28;20045;-56
2023/06/01 03:06:40;;;;;;;0.55;0.55;;;;;;;;;;5058186;28;20044;-56
2023/06/01 03:09:12;;;;;;;0.55;0.55;;;;;;;;;;5056778;28;20060;-57
2023/06/01 03:11:38;;;;;;;0.70;0.57;;;;;;;;;;5056648;28;20067;-56
2023/06/01 03:14:04;;;;;;;1.65;0.70;;;;;;;;;;5055620;28;20040;-56
2023/06/01 03:16:30;;;;;;;1.08;0.63;;;;;;;;;;5056635;28;20041;-56
2023/06/01 03:18:56;;;;;;;1.00;0.80;;;;;;;;;;5056524;28;20115;-57
2023/06/01 03:21:24;;;;;;;1.15;0.60;;;;;;;;;;5058809;28;20051;-56
2023/06/01 03:23:50;;;;;;;0.73;0.70;;;;;;;;;;5055595;28;20523;-56
2023/06/01 03:26:18;;;;;;;1.33;0.85;;;;;;;;;;5056973;28;20069;-56
2023/06/01 03:28:45;;;;;;;1.17;0.75;;;;;;;;;;5056552;28;20120;-57
2023/06/01 03:31:11;;;;;;;0.57;0.50;;;;;;;;;;5057412;28;20488;-56
2023/06/01 03:33:38;;;;;;;1.85;0.95;;;;;;;;;;5054479;28;20041;-56
2023/06/01 03:36:04;;;;;;;2.63;0.90;;;;;;;;;;5057929;28;20087;-57
2023/06/01 03:38:30;;;;;;;1.10;1.00;;;;;;;;;;5057972;28;20043;-57
2023/06/01 03:40:56;;;;;;;0.55;0.55;;;;;;;;;;5055349;28;20091;-57
2023/06/01 03:43:22;;;;;;;0.70;0.70;;;;;;;;;;5055559;28;20029;-56
2023/06/01 03:45:48;;;;;;;0.93;0.77;;;;;;;;;;5059293;28;20672;-56
2023/06/01 03:48:14;;;;;;;0.65;0.60;;;;;;;;;;5059845;28;20049;-56
2023/06/01 03:50:40;;;;;;;0.65;0.40;;;;;;;;;;5061560;28;20157;-57
2023/06/01 03:53:06;;;;;;;1.23;0.80;;;;;;;;;;5059679;28;20072;-57
2023/06/01 03:55:33;;;;;;;0.63;0.45;;;;;;;;;;5056817;28;20076;-57
2023/06/01 03:57:59;;;;;;;0.70;0.70;;;;;;;;;;5058380;28;20413;-56
2023/06/01 04:00:25;;;;;;;0.80;0.57;;;;;;;;;;5060291;28;20435;-56
2023/06/01 04:02:53;;;;;;;0.50;0.43;;;;;;;;;;5057629;28;20488;-57
2023/06/01 04:05:19;;;;;;;0.43;0.43;;;;;;;;;;5055009;28;20040;-56
2023/06/01 04:07:46;;;;;;;0.60;0.50;;;;;;;;;;5054853;28;20424;-57
2023/06/01 04:10:13;;;;;;;0.50;0.50;;;;;;;;;;5055748;28;20088;-57
2023/06/01 04:12:41;;;;;;;0.77;0.50;;;;;;;;;;5054208;28;20044;-56
2023/06/01 04:15:07;;;;;;;0.57;0.40;;;;;;;;;;5058800;28;20051;-57
2023/06/01 04:17:35;;;;;;;0.60;0.43;;;;;;;;;;5055437;28;20045;-57
2023/06/01 04:20:02;;;;;;;0.68;0.60;;;;;;;;;;5058347;28;20080;-57
2023/06/01 04:22:28;;;;;;;0.30;0.25;;;;;;;;;;5055435;28;20045;-57
2023/06/01 04:24:54;;;;;;;0.95;0.50;;;;;;;;;;5054720;28;20036;-56
2023/06/01 04:27:20;;;;;;;1.95;0.90;;;;;;;;;;5057006;28;20040;-57
2023/06/01 04:29:48;;;;;;;1.45;0.80;;;;;;;;;;5054954;28;20139;-56
2023/06/01 04:32:21;;;;;;;0.85;0.77;;;;;;;;;;5055364;28;20115;-56
2023/06/01 04:34:48;;;;;;;0.77;0.77;;;;;;;;;;5053383;28;20099;-56
2023/06/01 04:37:15;;;;;;;1.08;0.80;;;;;;;;;;5054314;28;20101;-56
2023/06/01 04:39:45;;;;;;;2.28;0.85;;;;;;;;;;5054773;28;20752;-56
2023/06/01 04:42:13;;;;;;;1.15;1.05;;;;;;;;;;5058926;28;20056;-56
2023/06/01 04:44:41;;;;;;;0.90;0.82;;;;;;;;;;5055987;28;20048;-57
2023/06/01 04:47:08;;;;;;;4.07;1.23;;;;;;;;;;5053606;28;20071;-57
2023/06/01 04:49:36;;;;;;;1.08;0.80;;;;;;;;;;5054044;28;20397;-57
2023/06/01 04:52:02;;;;;;;1.00;0.88;;;;;;;;;;5056134;28;20056;-56
2023/06/01 04:54:28;;;;;;;0.85;0.60;;;;;;;;;;5056145;28;20094;-56
2023/06/01 04:56:54;;;;;;;0.60;0.60;;;;;;;;;;5055179;28;20036;-56
2023/06/01 04:59:21;;;;;;;0.50;0.50;;;;;;;;;;5053961;28;20511;-56
2023/06/01 05:01:47;;;;;;;1.42;0.70;;;;;;;;;;5051058;28;20053;-57
2023/06/01 05:04:13;;;;;;;1.27;0.57;;;;;;;;;;5055015;28;20158;-55
2023/06/01 05:06:40;;;;;;;0.70;0.60;;;;;;;;;;5053306;28;20040;-55
2023/06/01 05:09:06;;;;;;;0.60;0.60;;;;;;;;;;5055801;28;20065;-54
2023/06/01 05:11:32;;;;;;;0.77;0.60;;;;;;;;;;5051781;28;20048;-56
2023/06/01 05:14:01;;;;;;;0.98;0.60;;;;;;;;;;5052164;28;20135;-57
2023/06/01 05:16:27;;;;;;;0.55;0.55;;;;;;;;;;5053533;28;20130;-56
2023/06/01 05:18:54;;;;;;;0.52;0.52;;;;;;;;;;5060381;28;20516;-57
2023/06/01 05:21:21;;;;;;;0.75;0.75;;;;;;;;;;5056990;28;20076;-56
2023/06/01 05:23:47;;;;;;;0.50;0.43;;;;;;;;;;5055753;28;20045;-56
2023/06/01 05:26:13;;;;;;;0.65;0.65;;;;;;;;;;5053956;28;20095;-57
2023/06/01 05:28:39;;;;;;;0.65;0.65;;;;;;;;;;5054285;28;20048;-55
2023/06/01 05:31:06;;;;;;;1.02;0.65;;;;;;;;;;5053564;28;20381;-57
2023/06/01 05:33:32;;;;;;;0.50;0.50;;;;;;;;;;5053012;28;20076;-57
2023/06/01 05:35:58;;;;;;;1.13;0.65;;;;;;;;;;5055498;28;20044;-57
2023/06/01 05:38:24;;;;;;;0.70;0.70;;;;;;;;;;5052442;28;20062;-56
2023/06/01 05:40:50;;;;;;;1.38;0.60;;;;;;;;;;5050150;28;20037;-56
2023/06/01 05:43:16;;;;;;;0.50;0.50;;;;;;;;;;5056737;28;20079;-56
2023/06/01 05:45:42;;;;;;;0.77;0.60;;;;;;;;;;5058221;28;20494;-57
2023/06/01 05:48:08;;;;;;;1.63;0.80;;;;;;;;;;5054472;28;20058;-57
2023/06/01 05:50:34;;;;;;;0.50;0.50;;;;;;;;;;5057977;28;20369;-57
2023/06/01 05:53:00;;;;;;;1.98;0.90;;;;;;;;;;5056352;28;20051;-57
2023/06/01 05:55:26;;;;;;;2.05;0.98;;;;;;;;;;5051297;28;20037;-56
2023/06/01 05:57:52;;;;;;;0.50;0.50;;;;;;;;;;5050321;28;20578;-57
2023/06/01 06:00:18;;;;;;;1.90;0.55;;;;;;;;;;5054227;28;20068;-57
2023/06/01 06:02:44;;;;;;;1.98;0.60;;;;;;;;;;5056420;28;20048;-56
2023/06/01 06:05:11;;;;;;;1.52;0.70;;;;;;;;;;5055711;28;20040;-57
2023/06/01 06:07:37;;;;;;;0.35;0.35;;;;;;;;;;5058225;28;20056;-56
2023/06/01 06:10:04;;;;;;;0.95;0.73;;;;;;;;;;5054220;28;20091;-57
2023/06/01 06:12:30;;;;;;;0.28;0.28;;;;;;;;;;5054458;28;20044;-57
2023/06/01 06:14:56;;;;;;;0.40;0.40;;;;;;;;;;5057478;28;20654;-57
2023/06/01 06:17:22;;;;;;;0.52;0.40;;;;;;;;;;5050847;28;20127;-56
2023/06/01 06:19:49;;;;;;;0.88;0.50;;;;;;;;;;5053731;28;20048;-57
2023/06/01 06:22:15;;;;;;;0.30;0.30;;;;;;;;;;5052857;28;20052;-57
2023/06/01 06:24:44;;;;;;;0.50;0.20;;;;;;;;;;5054526;28;20044;-57
2023/06/01 06:27:10;;;;;;;0.98;0.40;;;;;;;;;;5059038;28;20440;-57
2023/06/01 06:29:36;;;;;;;0.82;0.30;;;;;;;;;;5063045;28;20045;-57
2023/06/01 06:32:02;;;;;;;0.43;0.40;;;;;;;;;;5053710;28;20045;-57
2023/06/01 06:34:35;;;;;;;0.50;0.28;;;;;;;;;;5058643;28;21054;-57
2023/06/01 06:37:05;;;;;;;0.20;0.20;;;;;;;;;;5060295;28;20056;-56
2023/06/01 06:39:31;;;;;;;0.25;0.20;;;;;;;;;;5057233;28;20060;-57
2023/06/01 06:41:57;;;;;;;0.43;0.40;;;;;;;;;;5059794;28;20480;-57
2023/06/01 06:44:23;;;;;;;0.20;0.20;;;;;;;;;;5058198;28;20531;-57
2023/06/01 06:46:49;;;;;;;0.20;0.20;;;;;;;;;;5060358;28;20064;-57
2023/06/01 06:49:15;;;;;;;0.30;0.20;;;;;;;;;;5062142;28;20055;-57
2023/06/01 06:51:41;;;;;;;0.22;0.22;;;;;;;;;;5054036;28;20036;-57
2023/06/01 06:54:08;;;;;;;0.20;0.20;;;;;;;;;;5055703;28;20044;-57
2023/06/01 06:56:34;;;;;;;0.43;0.22;;;;;;;;;;5059305;28;20037;-57
2023/06/01 06:59:00;;;;;;;0.55;0.30;;;;;;;;;;5058695;28;20492;-57
2023/06/01 07:01:27;;;;;;;0.60;0.32;;;;;;;;;;5058903;28;20068;-57
2023/06/01 07:03:53;;;;;;;0.40;0.30;;;;;;;;;;5057736;28;20072;-56
2023/06/01 07:06:20;;;;;;;0.55;0.40;;;;;;;;;;5055074;28;20064;-57
2023/06/01 07:08:46;;;;;;;0.20;0.20;;;;;;;;;;5059344;28;20160;-56
2023/06/01 07:11:12;;;;;;;0.50;0.45;;;;;;;;;;5059247;28;20395;-57
2023/06/01 07:13:38;;;;;;;0.30;0.30;;;;;;;;;;5059515;28;20041;-57
2023/06/01 07:16:05;;;;;;;0.47;0.47;;;;;;;;;;5060915;28;20045;-57
2023/06/01 07:18:31;;;;;;;0.30;0.30;;;;;;;;;;5059403;28;20055;-57
2023/06/01 07:20:58;;;;;;;0.30;0.30;;;;;;;;;;5062200;28;20040;-57
2023/06/01 07:23:24;;;;;;;0.32;0.32;;;;;;;;;;5062795;28;20040;-56
2023/06/01 07:25:50;;;;;;;0.30;0.22;;;;;;;;;;5061975;28;20029;-57
2023/06/01 07:28:16;;;;;;;0.22;0.20;;;;;;;;;;5056357;28;20101;-55
2023/06/01 07:30:42;;;;;;;0.30;0.30;;;;;;;;;;5060820;28;20141;-57
2023/06/01 07:33:08;;;;;;;0.75;0.20;;;;;;;;;;5057105;28;20079;-57
2023/06/01 07:35:34;;;;;;;1.10;0.40;;;;;;;;;;5058615;28;20424;-57
2023/06/01 07:38:03;;;;;;;0.30;0.30;;;;;;;;;;5056160;28;20033;-57
2023/06/01 07:40:29;;;;;;;0.35;0.30;;;;;;;;;;5060091;28;20056;-57
2023/06/01 07:42:55;;;;;;;0.38;0.38;;;;;;;;;;5055023;28;20380;-56
2023/06/01 07:45:22;;;;;;;0.28;0.20;;;;;;;;;;5055477;28;20048;-57
2023/06/01 07:47:48;;;;;;;0.50;0.43;;;;;;;;;;5060086;28;20040;-57
2023/06/01 07:50:14;;;;;;;0.20;0.20;;;;;;;;;;5058580;28;20752;-56
2023/06/01 07:52:41;;;;;;;0.28;0.20;;;;;;;;;;5057055;28;20029;-60
2023/06/01 07:55:09;;;;;;;0.40;0.30;;;;;;;;;;5067093;28;20051;-56
2023/06/01 07:57:36;;;;;;;0.35;0.35;;;;;;;;;;5066780;28;20053;-64
2023/06/01 08:00:03;;;;;;;0.32;0.22;;;;;;;;;;5057873;28;20091;-60
2023/06/01 08:02:30;;;;;;;0.95;0.30;;;;;;;;;;5045483;28;20045;-58
2023/06/01 08:04:56;;;;;;;1.05;0.20;;;;;;;;;;5053457;28;20051;-58
2023/06/01 08:07:23;;;;;;;0.82;0.30;;;;;;;;;;5062996;28;20040;-58
2023/06/01 08:09:50;;;;;;;0.85;0.50;;;;;;;;;;5055772;28;20049;-58
2023/06/01 08:12:16;;;;;;;0.40;0.30;;;;;;;;;;5054597;28;20099;-57
2023/06/01 08:14:44;;;;;;;0.75;0.40;;;;;;;;;;5059943;28;20049;-58
2023/06/01 08:17:11;;;;;;;0.82;0.40;;;;;;;;;;5064019;28;20032;-58
2023/06/01 08:19:38;;;;;;;0.38;0.38;;;;;;;;;;5065976;28;20048;-58
2023/06/01 08:22:06;;;;;;;0.57;0.50;;;;;;;;;;5058786;28;20041;-58
2023/06/01 08:24:33;;;;;;;0.50;0.40;;;;;;;;;;5052435;28;20119;-57
2023/06/01 08:26:59;;;;;;;0.50;0.43;;;;;;;;;;5056606;28;20386;-59
2023/06/01 08:29:25;;;;;;;0.98;0.50;;;;;;;;;;5058833;28;20060;-58
2023/06/01 08:31:51;;;;;;;0.90;0.70;;;;;;;;;;5062542;28;20452;-58
2023/06/01 08:34:17;;;;;;;0.82;0.50;;;;;;;;;;5062836;28;20129;-57
2023/06/01 08:36:43;;;;;;;1.20;0.77;;;;;;;;;;5064732;28;20100;-58
2023/06/01 08:39:22;;;;;;;1.42;0.80;;;;;;;;;;5059316;28;20116;-58
2023/06/01 08:42:07;;;;;;;1.27;0.50;;;;;;;;;;5059122;28;20036;-58
2023/06/01 08:44:37;;;;;;;0.50;0.50;;;;;;;;;;5062551;28;20127;-58
2023/06/01 08:47:04;;;;;;;0.50;0.50;;;;;;;;;;5061711;28;20316;-58
2023/06/01 08:49:31;;;;;;;0.55;0.50;;;;;;;;;;5063438;28;20036;-59
2023/06/01 08:51:57;;;;;;;0.80;0.40;;;;;;;;;;5062731;28;20508;-59
2023/06/01 08:54:23;;;;;;;0.85;0.47;;;;;;;;;;5064049;28;20048;-58
2023/06/01 08:56:50;;;;;;;1.08;0.50;;;;;;;;;;5062604;28;20036;-58
2023/06/01 08:59:16;;;;;;;0.73;0.52;;;;;;;;;;5062317;28;20395;-58
2023/06/01 09:01:42;;;;;;;0.50;0.50;;;;;;;;;;5063045;28;20281;-58
2023/06/01 09:04:09;;;;;;;0.65;0.50;;;;;;;;;;5053644;28;20074;-58
2023/06/01 09:06:36;;;;;;;0.52;0.50;;;;;;;;;;5053102;28;20417;-58
2023/06/01 09:09:03;;;;;;;0.80;0.70;;;;;;;;;;5051730;28;20056;-58
2023/06/01 09:11:29;;;;;;;3.00;0.90;;;;;;;;;;5058438;28;20055;-58
2023/06/01 09:13:57;;;;;;;1.50;1.00;;;;;;;;;;5061266;28;20396;-58
2023/06/01 09:16:35;;;;;;;1.92;0.80;;;;;;;;;;5062304;28;20039;-58
2023/06/01 09:19:01;;;;;;;1.90;1.02;;;;;;;;;;5064455;28;20084;-58
2023/06/01 09:21:28;;;;;;;1.67;0.85;;;;;;;;;;5062757;28;20473;-58
2023/06/01 09:23:54;;;;;;;1.08;0.98;;;;;;;;;;5059948;28;20052;-58
2023/06/01 09:26:26;;;;;;;2.10;1.30;;;;;;;;;;5055330;28;20079;-58
2023/06/01 09:28:56;;;;;;;1.58;1.00;;;;;;;;;;5057008;28;20083;-58
2023/06/01 09:31:37;;;;;;;1.23;0.80;;;;;;;;;;5051572;28;20049;-58
2023/06/01 09:34:04;;;;;;;1.17;0.90;;;;;;;;;;5062324;28;20121;-58
2023/06/01 09:36:30;;;;;;;1.25;0.70;;;;;;;;;;5062140;28;20045;-58
2023/06/01 09:39:03;;;;;;;0.82;0.70;;;;;;;;;;5061183;28;20504;-58
2023/06/01 09:41:48;;;;;;;1.05;0.70;;;;;;;;;;5054050;28;20071;-58
2023/06/01 09:44:15;;;;;;;1.00;0.70;;;;;;;;;;5055983;28;20039;-57
2023/06/01 09:46:51;;;;;;;0.88;0.70;;;;;;;;;;5050579;28;20036;-57
2023/06/01 09:49:27;;;;;;;1.60;0.90;;;;;;;;;;5058726;28;20055;-58
2023/06/01 09:52:05;;;;;;;4.97;1.15;;;;;;;;;;5063814;28;20106;-58
2023/06/01 09:54:32;;;;;;;1.40;0.75;;;;;;;;;;5045510;28;20305;-58
2023/06/01 09:56:58;;;;;;;0.93;0.47;;;;;;;;;;5058884;28;20029;-58
2023/06/01 09:59:25;;;;;;;0.60;0.40;;;;;;;;;;5060963;28;20034;-57
2023/06/01 10:01:53;;;;;;;0.73;0.60;;;;;;;;;;5061773;28;20033;-58
2023/06/01 10:04:25;;;;;;;0.52;0.45;;;;;;;;;;5064623;28;20128;-57
2023/06/01 10:06:54;;;;;;;;;;;;;;;;;;5061769;28;20041;-58
2023/06/01 10:09:20;;;;;;;1.95;0.70;;;;;;;;;;5058732;28;19924;-57
2023/06/01 10:11:48;;;;;;;1.17;0.90;;;;;;;;;;5056003;28;20108;-57
2023/06/01 10:14:15;;;;;;;1.08;0.70;;;;;;;;;;5058595;28;20040;-57
2023/06/01 10:16:42;;;;;;;0.60;0.60;;;;;;;;;;5059399;28;20040;-56
2023/06/01 10:19:09;;;;;;;1.77;0.93;;;;;;;;;;5054795;28;20047;-63
2023/06/01 10:21:36;;;;;;;1.83;0.70;;;;;;;;;;5063819;28;20068;-56
2023/06/01 10:24:02;;;;;;;1.65;0.90;;;;;;;;;;5041191;28;20045;-57
2023/06/01 10:26:29;;;;;;;0.90;0.70;;;;;;;;;;5057439;28;20044;-57
2023/06/01 10:28:56;;;;;;;1.58;0.70;;;;;;;;;;5063349;28;20439;-57
2023/06/01 10:31:35;;;;;;;1.25;0.82;;;;;;;;;;5059616;28;20041;-56
2023/06/01 10:34:01;;;;;;;1.27;0.70;;;;;;;;;;5049693;28;20167;-57
2023/06/01 10:36:46;;;;;;;1.23;0.77;;;;;;;;;;5060532;28;20476;-57
2023/06/01 10:39:23;;;;;;;0.65;0.60;;;;;;;;;;5060294;28;20378;-54
2023/06/01 10:41:49;;;;;;;1.25;0.70;;;;;;;;;;5062499;28;20087;-55
2023/06/01 10:44:34;;;;;;;0.40;0.40;;;;;;;;;;5064263;28;20072;-54
2023/06/01 10:47:00;;;;;;;0.40;0.35;;;;;;;;;;5061508;28;20044;-54
2023/06/01 10:49:46;;;;;;;0.77;0.55;;;;;;;;;;5062800;28;20033;-54
2023/06/01 10:52:27;;;;;;;0.90;0.57;;;;;;;;;;5061702;28;20040;-55
2023/06/01 10:54:54;;;;;;;1.52;0.90;;;;;;;;;;5054634;28;20041;-55
2023/06/01 10:57:24;;;;;;;0.82;0.50;;;;;;;;;;5057606;28;20145;-55
2023/06/01 11:00:09;;;;;;;2.13;0.88;;;;;;;;;;5050580;28;20048;-55
2023/06/01 11:02:35;;;;;;;0.60;0.40;;;;;;;;;;5055438;28;20498;-55
2023/06/01 11:05:20;;;;;;;0.40;0.40;;;;;;;;;;5048529;28;20080;-55
2023/06/01 11:07:46;;;;;;;1.15;0.68;;;;;;;;;;5052123;28;20053;-55
2023/06/01 11:10:12;;;;;;;0.90;0.52;;;;;;;;;;5052849;28;20076;-56
2023/06/01 11:13:10;;;;;;;1.00;0.63;;;;;;;;;;5061818;28;20046;-55
2023/06/01 11:15:38;;;;;;;1.45;0.50;;;;;;;;;;5015247;28;20059;-55
2023/06/01 11:18:23;;;;;;;2.45;1.13;;;;;;;;;;5057122;28;20720;-55
2023/06/01 11:20:49;;;;;;;1.90;0.90;;;;;;;;;;5063736;28;20267;-55
2023/06/01 11:23:16;;;;;;;2.90;0.98;;;;;;;;;;5065869;28;20484;-55
2023/06/01 11:25:42;;;;;;;0.75;0.75;;;;;;;;;;5063887;28;20128;-55
2023/06/01 11:28:08;;;;;;;0.75;0.73;;;;;;;;;;5063377;28;20086;-55
2023/06/01 11:30:35;;;;;;;1.10;0.60;;;;;;;;;;5064262;28;20040;-56
2023/06/01 11:33:04;;;;;;;1.42;0.90;;;;;;;;;;5036703;28;20405;-56
2023/06/01 11:35:30;;;;;;;1.50;0.80;;;;;;;;;;5061810;28;20120;-55
2023/06/01 11:37:56;;;;;;;1.02;0.70;;;;;;;;;;5067350;28;20036;-55
2023/06/01 11:40:22;;;;;;;0.75;0.52;;;;;;;;;;5061754;28;20045;-55
2023/06/01 11:42:48;;;;;;;1.10;0.80;;;;;;;;;;5060655;28;20422;-58
2023/06/01 11:45:18;;;;;;;0.70;0.65;;;;;;;;;;5055242;28;20088;-58
2023/06/01 11:47:45;;;;;;;2.58;0.70;;;;;;;;;;5064927;28;20028;-57
2023/06/01 11:50:21;;;;;;;0.57;0.50;;;;;;;;;;5064167;28;20040;-58
2023/06/01 11:52:48;;;;;;;0.95;0.75;;;;;;;;;;5039974;28;20091;-58
2023/06/01 11:55:14;;;;;;;1.30;0.85;;;;;;;;;;5053460;28;20061;-58
2023/06/01 11:57:41;;;;;;;1.10;0.93;;;;;;;;;;5052951;28;20488;-58
2023/06/01 12:00:13;;;;;;;0.90;0.73;;;;;;;;;;5059200;28;20068;-58
2023/06/01 12:02:41;;;;;;;2.00;0.90;;;;;;;;;;5048680;28;20711;-58
2023/06/01 12:05:08;;;;;;;1.92;1.13;;;;;;;;;;5062534;28;20114;-58
2023/06/01 12:07:44;;;;;;;1.38;0.80;;;;;;;;;;5065871;28;20135;-58
2023/06/01 12:10:14;;;;;;;1.42;0.80;;;;;;;;;;5053315;28;20515;-58
2023/06/01 12:12:41;;;;;;;0.98;0.85;;;;;;;;;;5056788;28;20049;-58
2023/06/01 12:15:08;;;;;;;1.23;0.60;;;;;;;;;;5052123;28;20055;-58
2023/06/01 12:17:49;;;;;;;1.27;0.75;;;;;;;;;;5063022;28;20094;-58
2023/06/01 12:20:26;;;;;;;1.67;0.60;;;;;;;;;;5046771;28;20607;-58
2023/06/01 12:22:55;;;;;;;0.82;0.50;;;;;;;;;;5064243;28;20040;-55
2023/06/01 12:25:21;;;;;;;1.77;0.80;;;;;;;;;;5064198;28;20051;-55
2023/06/01 12:27:59;;;;;;;0.73;0.50;;;;;;;;;;5062758;28;20134;-55
2023/06/01 12:30:26;;;;;;;2.22;0.60;;;;;;;;;;5066756;28;20044;-56
2023/06/01 12:32:52;;;;;;;0.70;0.60;;;;;;;;;;5054771;28;20040;-56
2023/06/01 12:35:18;;;;;;;1.02;0.60;;;;;;;;;;5057202;28;20032;-55
2023/06/01 12:37:44;;;;;;;1.05;0.60;;;;;;;;;;5064791;28;20059;-56
2023/06/01 12:40:10;;;;;;;4.97;0.82;;;;;;;;;;5057759;28;20166;-56
2023/06/01 12:42:37;;;;;;;0.82;0.73;;;;;;;;;;5050513;28;20119;-55
2023/06/01 12:45:05;;;;;;;3.55;0.98;;;;;;;;;;5058883;28;20048;-56
2023/06/01 12:47:41;;;;;;;2.50;1.10;;;;;;;;;;5065502;28;20053;-56
2023/06/01 12:50:09;;;;;;;3.03;1.15;;;;;;;;;;5060702;28;20079;-56
2023/06/01 12:52:35;;;;;;;2.60;1.30;;;;;;;;;;5053579;28;20041;-55
2023/06/01 12:55:03;;;;;;;2.35;1.00;;;;;;;;;;5057848;28;20597;-55
2023/06/01 12:57:29;;;;;;;1.20;0.80;;;;;;;;;;5059046;28;20040;-55
2023/06/01 12:59:55;;;;;;;1.88;1.00;;;;;;;;;;5061586;28;20032;-55
2023/06/01 13:02:23;;;;;;;0.80;0.50;;;;;;;;;;5059482;28;20071;-56
2023/06/01 13:04:49;;;;;;;4.10;1.10;;;;;;;;;;5063517;28;20055;-55
2023/06/01 13:07:15;;;;;;;2.33;1.17;;;;;;;;;;5055543;28;20035;-56
2023/06/01 13:09:42;;;;;;;0.57;0.52;;;;;;;;;;5058049;28;20056;-56
2023/06/01 13:12:09;;;;;;;1.08;0.70;;;;;;;;;;5043461;28;20037;-56
2023/06/01 13:14:35;;;;;;;2.65;1.15;;;;;;;;;;5044791;28;20037;-55
2023/06/01 13:17:03;;;;;;;2.13;0.70;;;;;;;;;;5044717;28;20048;-56
2023/06/01 13:19:29;;;;;;;2.38;1.33;;;;;;;;;;5062726;28;20048;-56
2023/06/01 13:21:56;;;;;;;1.00;0.90;;;;;;;;;;5064022;28;20044;-56
2023/06/01 13:24:22;;;;;;;1.70;0.88;;;;;;;;;;5049075;28;20049;-54
2023/06/01 13:26:48;;;;;;;1.83;1.10;;;;;;;;;;5045476;28;20068;-55
2023/06/01 13:29:14;;;;;;;1.55;1.00;;;;;;;;;;5046261;28;20103;-55
2023/06/01 13:31:40;;;;;;;1.58;1.10;;;;;;;;;;5061526;28;20037;-54
2023/06/01 13:34:06;;;;;;;1.77;1.13;;;;;;;;;;5057863;28;21281;-55
2023/06/01 13:36:32;;;;;;;1.67;1.30;;;;;;;;;;5062997;28;20119;-55
2023/06/01 13:38:59;;;;;;;2.05;1.30;;;;;;;;;;5059027;28;20511;-55
2023/06/01 13:41:25;;;;;;;0.80;0.80;;;;;;;;;;5052662;28;20044;-55
2023/06/01 13:43:51;;;;;;;1.45;1.13;;;;;;;;;;5054929;28;20492;-55
2023/06/01 13:46:17;;;;;;;1.05;0.68;;;;;;;;;;5064088;28;20103;-55
2023/06/01 13:48:43;;;;;;;1.05;0.85;;;;;;;;;;5054231;28;20127;-55
2023/06/01 13:51:09;;;;;;;1.25;1.00;;;;;;;;;;5053201;28;20041;-54
2023/06/01 13:53:35;;;;;;;0.82;0.82;;;;;;;;;;5048050;28;20052;-55
2023/06/01 13:56:02;;;;;;;2.00;0.82;;;;;;;;;;5055356;28;20051;-55
2023/06/01 13:58:28;;;;;;;0.52;0.52;;;;;;;;;;5063465;28;20133;-55
2023/06/01 14:00:54;;;;;;;1.42;0.70;;;;;;;;;;5062840;28;20036;-54
2023/06/01 14:03:20;;;;;;;0.73;0.50;;;;;;;;;;5062693;28;20118;-55
2023/06/01 14:05:46;;;;;;;0.30;0.30;;;;;;;;;;5063551;28;20071;-55
2023/06/01 14:08:12;;;;;;;0.30;0.30;;;;;;;;;;5062012;28;20056;-55
2023/06/01 14:10:38;;;;;;;0.40;0.40;;;;;;;;;;5062553;28;20059;-55
2023/06/01 14:13:04;;;;;;;0.50;0.40;;;;;;;;;;5063526;28;20301;-55
2023/06/01 14:15:30;;;;;;;0.52;0.30;;;;;;;;;;5062702;28;20311;-54
2023/06/01 14:17:56;;;;;;;0.45;0.30;;;;;;;;;;5063819;28;20055;-54
2023/06/01 14:20:23;;;;;;;0.52;0.43;;;;;;;;;;5063639;28;20044;-54
2023/06/01 14:22:48;;;;;;;0.52;0.47;;;;;;;;;;5063701;28;20045;-54
2023/06/01 14:25:15;;;;;;;1.00;0.50;;;;;;;;;;5065763;28;20036;-54
2023/06/01 14:27:41;;;;;;;0.55;0.40;;;;;;;;;;5065197;28;20037;-55
2023/06/01 14:30:07;;;;;;;0.70;0.47;;;;;;;;;;5064089;28;20488;-54
2023/06/01 14:32:34;;;;;;;1.25;0.40;;;;;;;;;;5063878;28;20434;-53
2023/06/01 14:35:00;;;;;;;0.50;0.45;;;;;;;;;;5063820;28;20036;-54
2023/06/01 14:37:26;;;;;;;1.00;0.57;;;;;;;;;;5064285;28;20126;-54
2023/06/01 14:39:52;;;;;;;0.70;0.65;;;;;;;;;;5064882;28;20066;-54
2023/06/01 14:42:18;;;;;;;1.30;0.50;;;;;;;;;;5064917;28;20048;-54
2023/06/01 14:44:44;;;;;;;0.80;0.60;;;;;;;;;;5064703;28;20423;-53
2023/06/01 14:47:11;;;;;;;0.80;0.60;;;;;;;;;;5068185;28;20076;-55